Station: Centre Island  

  Atmospheric Gas Attenuation - ITU Rec 676-11   ----------------- dB/100km -----------------
Date Time Temp RH % AH g/m3 Dew Point Wind Direction Speed kph Gust kph Barometer mB Rainfall Since 9am 24GHz 47GHz 76GHz 122GHz 134GHz 241GHz
04/09 14:10 28.3 66 18.25 21.3 22 28 1015.5 0 39.0 37.2 70.7 187.0 204.5 710.6
04/09 14:00 28.8 65 18.47 21.6 22 28 1015.7 0 39.4 37.4 71.2 188.4 206.3 717.1
04/09 13:50 28.8 64 18.19 21.3 22 28 1015.8 0 38.8 36.9 70.0 185.1 202.3 703.1
04/09 13:40 28.8 63 17.9 21.1 24 32 1015.9 0 38.2 36.4 68.7 181.7 198.2 688.7
04/09 13:30 28.6 64 17.99 21.1 24 30 1016.1 0 38.4 36.7 69.3 183.3 200.0 695.1
04/09 13:20 29.6 62 18.4 21.5 20 26 1016.3 0 39.2 37.0 70.2 185.7 203.3 706.5
04/09 13:10 28.7 64 18.09 21.2 20 26 1016.4 0 38.6 36.8 69.7 184.2 201.2 699.3
04/09 13:00 28.6 67 18.83 21.9 20 26 1016.7 0 40.2 38.2 73.1 193.3 212.3 737.7
04/09 12:50 28.7 67 18.93 22 20 26 1016.7 0 40.4 38.3 73.4 194.2 213.4 741.8
04/09 12:40 28.5 67 18.73 21.8 17 24 1016.9 0 40.0 38.1 72.7 192.4 211.1 733.7
04/09 12:30 28.5 70 19.57 22.5 15 20 1017.2 0 41.8 39.6 76.5 202.5 223.6 777.0
04/09 12:20 27.5 72 19.05 22 13 17 1017.2 0 40.8 39.1 75.2 198.8 218.7 760.1
04/09 12:10 27.9 70 18.93 21.9 15 20 1017.4 0 40.5 38.7 74.2 196.3 215.8 750.0
04/09 12:00 28.1 71 19.42 22.3 13 19 1017.7 0 41.5 39.5 76.3 201.8 222.6 773.5
04/09 11:50 28 70 19.04 22 15 19 1017.7 0 40.7 38.9 74.7 197.5 217.2 754.8
04/09 11:40 27.5 70 18.52 21.5 13 19 1017.9 0 39.7 38.2 72.8 192.5 211.0 733.0
04/09 11:30 27.7 71 18.99 22 13 19 1018.1 0 40.6 39.0 74.7 197.7 217.4 755.4
04/09 11:20 27.1 71 18.37 21.4 13 19 1018.2 0 39.4 38.1 72.5 191.7 209.9 729.3
04/09 11:10 27.3 67 17.53 20.6 11 17 1018.4 0 37.6 36.5 68.6 181.3 197.1 684.8
04/09 11:00 26.5 72 18.02 21 9 11 1018.6 0 38.7 37.8 71.5 189.1 206.4 717.2
04/09 10:50 26.5 74 18.52 21.5 9 13 1018.6 0 39.8 38.7 73.8 195.1 213.9 743.1
04/09 10:40 26.2 79 19.45 22.3 7 9 1018.7 0 41.7 40.6 78.4 207.5 228.9 795.3
04/09 10:30 25.3 80 18.73 21.6 7 9 1019 0 40.3 39.6 76.0 200.9 220.6 766.2
04/09 10:20 25.2 81 18.86 21.7 9 11 1018.9 0 40.6 39.9 76.7 202.8 222.9 774.2
04/09 10:10 25.7 80 19.15 22 6 9 1018.9 0 41.2 40.2 77.5 205.1 225.8 784.5
04/09 10:00 26.1 79 19.34 22.2 6 7 1019.1 0 41.5 40.4 78.0 206.4 227.6 790.7
04/09 09:50 25.1 83 19.21 22 6 9 1019 0 41.4 40.6 78.5 207.5 228.6 794.1
04/09 09:40 24.4 85 18.92 21.7 6 9 1019 0 40.8 40.4 77.8 205.7 226.2 785.7
04/09 09:30 24.1 87 19.03 21.8 7 9 1019 0 41.1 40.8 78.6 207.9 228.9 794.8
04/09 09:20 24.3 85 18.81 21.6 9 11 1018.8 0 40.6 40.3 77.4 204.6 224.8 780.7
04/09 09:10 24 89 19.36 22.1 7 11 1018.7 0 41.8 41.5 80.3 212.4 234.3 813.9
04/09 09:00 23.4 90 18.92 21.7 9 13 1018.7 0 40.9 40.9 78.8 208.4 229.2 796.0
04/09 08:50 23.4 91 19.13 21.8 9 11 1018.5 0 41.4 41.3 79.8 211.1 232.6 807.5
04/09 08:40 23.3 91 19.03 21.7 9 13 1018.4 0 41.2 41.2 79.4 210.1 231.3 803.0
04/09 08:30 23.3 89 18.61 21.4 9 13 1018.4 0 40.3 40.3 77.4 204.7 224.6 779.9
04/09 08:20 23.4 91 19.13 21.8 9 13 1018.1 0 41.4 41.3 79.8 211.0 232.5 807.3
04/09 08:10 23.1 89 18.4 21.2 9 13 1018 0 39.8 40.0 76.6 202.5 221.9 770.3
04/09 08:00 23.3 91 19.03 21.7 11 15 1018.1 0 41.2 41.1 79.4 210.0 231.2 802.9
04/09 07:50 23.2 91 18.92 21.6 9 13 1017.9 0 40.9 41.0 79.0 208.8 229.7 797.7
04/09 07:40 22.8 91 18.49 21.3 11 13 1017.7 0 40.1 40.3 77.3 204.4 224.1 778.2
04/09 07:30 22.8 93 18.9 21.6 11 13 1017.6 0 41.0 41.1 79.3 209.7 230.6 800.7
04/09 07:20 22.6 93 18.68 21.4 11 13 1017.5 0 40.5 40.8 78.4 207.3 227.7 790.6
04/09 07:10 22.7 94 18.99 21.7 13 15 1017.3 0 41.2 41.3 79.8 211.1 232.3 806.6
04/09 07:00 22.6 94 18.88 21.6 11 13 1017.3 0 40.9 41.2 79.4 209.9 230.9 801.6
04/09 06:50 22.4 94 18.67 21.4 9 15 1017 0 40.5 40.8 78.5 207.7 228.1 791.9
04/09 06:40 22.4 94 18.67 21.4 13 17 1016.9 0 40.5 40.8 78.5 207.7 228.1 791.8
04/09 06:30 22.6 94 18.88 21.6 11 15 1016.9 0 40.9 41.1 79.3 209.8 230.8 801.4
04/09 06:20 22.3 94 18.56 21.3 13 15 1016.7 0 40.3 40.7 78.1 206.5 226.6 786.7
04/09 06:10 22.3 94 18.56 21.3 13 15 1016.7 0 40.3 40.7 78.1 206.5 226.6 786.7
04/09 06:00 22.5 94 18.77 21.5 11 15 1016.6 0 40.7 41.0 78.9 208.6 229.3 796.2
04/09 05:50 22.6 94 18.88 21.6 11 15 1016.3 0 40.9 41.1 79.3 209.7 230.7 801.0
04/09 05:40 22.7 94 18.99 21.7 11 13 1016.1 0 41.2 41.3 79.7 210.9 232.1 806.0
04/09 05:30 22.9 95 19.41 22.1 13 15 1016.1 0 42.0 42.0 81.6 215.8 238.2 827.2
04/09 05:20 23 95 19.52 22.2 11 13 1015.9 0 42.3 42.2 82.0 216.9 239.7 832.2
04/09 05:10 22.9 95 19.41 22.1 9 13 1015.8 0 42.0 42.0 81.6 215.7 238.2 827.1
04/09 05:00 23.1 96 19.84 22.4 9 13 1015.8 0 42.9 42.7 83.5 220.8 244.5 849.0
04/09 04:50 23.1 96 19.84 22.4 9 11 1015.6 0 42.9 42.7 83.5 220.8 244.5 848.9
04/09 04:40 22.8 96 19.51 22.1 4 9 1015.6 0 42.3 42.2 82.1 217.3 240.1 833.7
04/09 04:30 22.4 95 18.87 21.6 0 0 1015.7 0 40.9 41.2 79.4 210.1 231.1 802.3
04/09 04:20 22.4 95 18.87 21.6 0 0 1015.6 0 40.9 41.2 79.4 210.1 231.1 802.3
04/09 04:10 22.7 95 19.19 21.9 0 0 1015.6 0 41.6 41.6 80.7 213.4 235.3 816.9
04/09 04:00 22.6 95 19.08 21.8 0 0 1015.8 0 41.4 41.5 80.3 212.3 233.8 811.9
04/09 03:50 22.6 95 19.08 21.8 0 0 1015.7 0 41.4 41.5 80.2 212.3 233.8 811.9
04/09 03:40 22.6 95 19.08 21.8 0 0 1015.7 0 41.4 41.5 80.2 212.3 233.8 811.9
04/09 03:30 22.4 94 18.67 21.4 0 0 1015.8 0 40.5 40.8 78.5 207.5 227.9 791.3
04/09 03:20 22.4 94 18.67 21.4 0 0 1015.6 0 40.5 40.8 78.4 207.5 227.9 791.1
04/09 03:10 22.6 94 18.88 21.6 0 0 1015.6 0 40.9 41.1 79.3 209.6 230.6 800.7
04/09 03:00 22.8 94 19.1 21.8 0 0 1015.8 0 41.4 41.4 80.1 212.0 233.5 810.9
04/09 02:50 22.8 93 18.9 21.6 0 0 1015.8 0 41.0 41.0 79.2 209.4 230.3 799.7
04/09 02:40 22.7 92 18.59 21.3 0 0 1015.8 0 40.3 40.5 77.8 205.6 225.7 783.7
04/09 02:30 23 92 18.91 21.6 0 0 1016 0 41.0 41.0 79.0 209.0 229.9 798.3
04/09 02:20 23 91 18.7 21.5 4 7 1016 0 40.5 40.6 78.0 206.3 226.6 786.7
04/09 02:10 23.3 91 19.03 21.7 7 9 1016.1 0 41.2 41.1 79.3 209.7 230.9 801.8
04/09 02:00 23.4 91 19.13 21.8 9 11 1016.2 0 41.4 41.2 79.7 210.7 232.2 806.3
04/09 01:50 23.5 91 19.24 21.9 7 9 1016.2 0 41.6 41.4 80.1 211.9 233.6 811.3
04/09 01:40 23.6 90 19.14 21.9 9 13 1016.4 0 41.4 41.1 79.5 210.3 231.8 804.8
04/09 01:30 23.8 90 19.36 22.1 11 15 1016.5 0 41.8 41.5 80.4 212.6 234.6 814.8
04/09 01:20 23.8 90 19.36 22.1 13 15 1016.5 0 41.8 41.5 80.4 212.6 234.6 814.8
04/09 01:10 23.9 90 19.47 22.2 13 17 1016.6 0 42.1 41.6 80.8 213.8 236.1 819.9
04/09 01:00 23.9 89 19.25 22 15 19 1016.8 0 41.6 41.2 79.8 211.0 232.6 807.8
04/09 00:50 24 89 19.36 22.1 13 17 1016.8 0 41.8 41.4 80.2 212.1 234.0 812.8
04/09 00:40 24 89 19.36 22.1 13 17 1016.9 0 41.8 41.4 80.2 212.1 234.1 812.9
04/09 00:30 24.1 88 19.25 22 17 20 1017.1 0 41.6 41.1 79.6 210.5 232.0 805.9
04/09 00:20 24.2 87 19.14 21.9 17 22 1017 0 41.3 40.9 78.9 208.8 230.0 798.7
04/09 00:10 24.3 87 19.25 22 17 22 1017.1 0 41.5 41.0 79.4 209.9 231.4 803.7
04/09 00:00 24.3 87 19.25 22 17 22 1017.3 0 41.5 41.0 79.4 209.9 231.4 803.8
03/09 23:50 24.3 86 19.03 21.8 17 22 1017.3 0 41.1 40.6 78.3 207.1 228.0 791.8
03/09 23:40 24.3 86 19.03 21.8 20 24 1017.3 0 41.1 40.6 78.3 207.1 228.0 791.8
03/09 23:30 24.3 86 19.03 21.8 20 24 1017.5 0 41.1 40.6 78.3 207.2 228.0 791.9
03/09 23:20 24.4 86 19.14 21.9 19 20 1017.5 0 41.3 40.8 78.8 208.3 229.4 796.9
03/09 23:10 24.4 86 19.14 21.9 17 19 1017.7 0 41.3 40.8 78.8 208.3 229.5 797.0
03/09 23:00 24.4 85 18.92 21.7 17 19 1017.9 0 40.8 40.4 77.7 205.5 226.1 785.1
03/09 22:50 24.4 85 18.92 21.7 15 19 1017.9 0 40.8 40.4 77.7 205.5 226.1 785.1
03/09 22:40 24.4 85 18.92 21.7 15 19 1017.9 0 40.8 40.4 77.7 205.5 226.1 785.1
03/09 22:30 24.4 85 18.92 21.7 15 17 1018.1 0 40.8 40.4 77.7 205.6 226.1 785.2
03/09 22:20 24.4 84 18.69 21.5 13 15 1018.1 0 40.3 40.0 76.6 202.7 222.5 772.8
03/09 22:10 24.4 85 18.92 21.7 11 15 1018.2 0 40.8 40.4 77.7 205.6 226.1 785.3
03/09 22:00 24.4 84 18.69 21.5 11 15 1018.3 0 40.3 40.0 76.7 202.7 222.5 772.9
03/09 21:50 24.5 84 18.8 21.6 13 17 1018.2 0 40.6 40.1 77.1 203.8 223.9 777.7
03/09 21:40 24.4 84 18.69 21.5 11 15 1018.3 0 40.3 40.0 76.7 202.7 222.5 772.9

Last Refresh: 04-Sep-2026 14:17:02

Bureau of Meteorology